sensor_id;sensor_type;location;lat;lon;timestamp;P1;durP1;ratioP1;P2;durP2;ratioP2
22525;SDS011;11429;50.842;4.386;2023-08-06T00:00:16;5.35;;;2.65;;
22525;SDS011;11429;50.842;4.386;2023-08-06T00:02:42;6.07;;;2.72;;
22525;SDS011;11429;50.842;4.386;2023-08-06T00:05:07;5.90;;;2.72;;
22525;SDS011;11429;50.842;4.386;2023-08-06T00:07:33;5.70;;;2.83;;
22525;SDS011;11429;50.842;4.386;2023-08-06T00:09:59;5.13;;;2.85;;
22525;SDS011;11429;50.842;4.386;2023-08-06T00:12:25;4.97;;;3.38;;
22525;SDS011;11429;50.842;4.386;2023-08-06T00:14:51;4.82;;;2.85;;
22525;SDS011;11429;50.842;4.386;2023-08-06T00:17:17;5.25;;;2.85;;
22525;SDS011;11429;50.842;4.386;2023-08-06T00:19:43;8.13;;;3.13;;
22525;SDS011;11429;50.842;4.386;2023-08-06T00:22:09;5.35;;;3.47;;
22525;SDS011;11429;50.842;4.386;2023-08-06T00:24:35;7.18;;;3.45;;
22525;SDS011;11429;50.842;4.386;2023-08-06T00:27:01;5.25;;;3.28;;
22525;SDS011;11429;50.842;4.386;2023-08-06T00:29:27;8.32;;;4.40;;
22525;SDS011;11429;50.842;4.386;2023-08-06T00:31:53;5.97;;;4.40;;
22525;SDS011;11429;50.842;4.386;2023-08-06T00:34:19;9.57;;;4.70;;
22525;SDS011;11429;50.842;4.386;2023-08-06T00:36:44;6.72;;;4.38;;
22525;SDS011;11429;50.842;4.386;2023-08-06T00:39:10;11.27;;;5.07;;
22525;SDS011;11429;50.842;4.386;2023-08-06T00:41:36;9.27;;;5.22;;
22525;SDS011;11429;50.842;4.386;2023-08-06T00:44:02;7.45;;;5.32;;
22525;SDS011;11429;50.842;4.386;2023-08-06T00:46:28;10.23;;;5.82;;
22525;SDS011;11429;50.842;4.386;2023-08-06T00:48:53;9.75;;;6.10;;
22525;SDS011;11429;50.842;4.386;2023-08-06T00:51:20;11.30;;;6.63;;
22525;SDS011;11429;50.842;4.386;2023-08-06T00:53:46;10.50;;;6.15;;
22525;SDS011;11429;50.842;4.386;2023-08-06T00:56:13;16.10;;;7.63;;
22525;SDS011;11429;50.842;4.386;2023-08-06T00:58:39;11.82;;;6.82;;
22525;SDS011;11429;50.842;4.386;2023-08-06T01:01:05;8.52;;;6.47;;
22525;SDS011;11429;50.842;4.386;2023-08-06T01:03:31;10.43;;;7.10;;
22525;SDS011;11429;50.842;4.386;2023-08-06T01:14:15;10.27;;;7.53;;
22525;SDS011;11429;50.842;4.386;2023-08-06T01:16:50;14.93;;;9.00;;
22525;SDS011;11429;50.842;4.386;2023-08-06T01:19:17;15.32;;;10.10;;
22525;SDS011;11429;50.842;4.386;2023-08-06T01:21:43;12.32;;;9.30;;
22525;SDS011;11429;50.842;4.386;2023-08-06T01:24:09;15.98;;;10.45;;
22525;SDS011;11429;50.842;4.386;2023-08-06T01:26:38;16.60;;;9.98;;
22525;SDS011;11429;50.842;4.386;2023-08-06T01:29:15;19.90;;;9.75;;
22525;SDS011;11429;50.842;4.386;2023-08-06T01:31:46;14.63;;;9.60;;
22525;SDS011;11429;50.842;4.386;2023-08-06T01:34:22;13.80;;;8.90;;
22525;SDS011;11429;50.842;4.386;2023-08-06T01:36:50;14.63;;;9.18;;
22525;SDS011;11429;50.842;4.386;2023-08-06T01:39:16;17.38;;;9.55;;
22525;SDS011;11429;50.842;4.386;2023-08-06T01:41:41;15.80;;;9.05;;
22525;SDS011;11429;50.842;4.386;2023-08-06T01:44:07;16.05;;;8.85;;
22525;SDS011;11429;50.842;4.386;2023-08-06T01:46:33;13.73;;;8.55;;
22525;SDS011;11429;50.842;4.386;2023-08-06T01:48:58;14.02;;;9.05;;
22525;SDS011;11429;50.842;4.386;2023-08-06T01:51:24;12.23;;;8.90;;
22525;SDS011;11429;50.842;4.386;2023-08-06T01:53:50;13.90;;;8.50;;
22525;SDS011;11429;50.842;4.386;2023-08-06T01:56:16;14.82;;;7.97;;
22525;SDS011;11429;50.842;4.386;2023-08-06T01:58:41;10.52;;;6.90;;
22525;SDS011;11429;50.842;4.386;2023-08-06T02:01:07;11.90;;;8.27;;
22525;SDS011;11429;50.842;4.386;2023-08-06T02:03:33;11.27;;;7.00;;
22525;SDS011;11429;50.842;4.386;2023-08-06T02:05:58;9.32;;;7.00;;
22525;SDS011;11429;50.842;4.386;2023-08-06T02:08:24;14.75;;;6.60;;
22525;SDS011;11429;50.842;4.386;2023-08-06T02:10:50;10.90;;;6.22;;
22525;SDS011;11429;50.842;4.386;2023-08-06T02:13:15;9.82;;;6.60;;
22525;SDS011;11429;50.842;4.386;2023-08-06T02:15:42;12.30;;;5.78;;
22525;SDS011;11429;50.842;4.386;2023-08-06T02:18:13;9.32;;;4.60;;
22525;SDS011;11429;50.842;4.386;2023-08-06T02:20:40;8.02;;;3.97;;
22525;SDS011;11429;50.842;4.386;2023-08-06T02:23:06;8.68;;;4.07;;
22525;SDS011;11429;50.842;4.386;2023-08-06T02:25:31;6.15;;;3.55;;
22525;SDS011;11429;50.842;4.386;2023-08-06T02:27:57;8.02;;;3.45;;
22525;SDS011;11429;50.842;4.386;2023-08-06T02:30:23;9.60;;;3.80;;
22525;SDS011;11429;50.842;4.386;2023-08-06T02:32:49;9.88;;;3.47;;
22525;SDS011;11429;50.842;4.386;2023-08-06T02:35:14;10.10;;;3.40;;
22525;SDS011;11429;50.842;4.386;2023-08-06T02:37:40;6.85;;;3.50;;
22525;SDS011;11429;50.842;4.386;2023-08-06T02:40:06;9.90;;;3.05;;
22525;SDS011;11429;50.842;4.386;2023-08-06T02:42:32;12.60;;;3.13;;
22525;SDS011;11429;50.842;4.386;2023-08-06T02:44:58;7.00;;;3.28;;
22525;SDS011;11429;50.842;4.386;2023-08-06T02:47:23;9.43;;;3.35;;
22525;SDS011;11429;50.842;4.386;2023-08-06T02:49:49;8.68;;;3.40;;
22525;SDS011;11429;50.842;4.386;2023-08-06T02:52:15;9.32;;;3.13;;
22525;SDS011;11429;50.842;4.386;2023-08-06T02:54:41;7.35;;;2.97;;
22525;SDS011;11429;50.842;4.386;2023-08-06T02:57:07;8.57;;;3.10;;
22525;SDS011;11429;50.842;4.386;2023-08-06T02:59:33;12.43;;;2.80;;
22525;SDS011;11429;50.842;4.386;2023-08-06T03:01:58;4.53;;;2.67;;
22525;SDS011;11429;50.842;4.386;2023-08-06T03:04:24;9.60;;;2.55;;
22525;SDS011;11429;50.842;4.386;2023-08-06T03:06:50;7.28;;;2.50;;
22525;SDS011;11429;50.842;4.386;2023-08-06T03:09:16;8.93;;;3.30;;
22525;SDS011;11429;50.842;4.386;2023-08-06T03:11:42;9.07;;;3.30;;
22525;SDS011;11429;50.842;4.386;2023-08-06T03:14:08;12.27;;;3.83;;
22525;SDS011;11429;50.842;4.386;2023-08-06T03:16:34;10.35;;;4.20;;
22525;SDS011;11429;50.842;4.386;2023-08-06T03:19:00;12.52;;;4.40;;
22525;SDS011;11429;50.842;4.386;2023-08-06T03:21:26;11.98;;;4.55;;
22525;SDS011;11429;50.842;4.386;2023-08-06T03:23:52;16.48;;;5.32;;
22525;SDS011;11429;50.842;4.386;2023-08-06T03:26:17;13.27;;;5.78;;
22525;SDS011;11429;50.842;4.386;2023-08-06T03:28:43;12.70;;;6.18;;
22525;SDS011;11429;50.842;4.386;2023-08-06T03:33:37;14.95;;;7.70;;
22525;SDS011;11429;50.842;4.386;2023-08-06T03:36:02;18.80;;;9.48;;
22525;SDS011;11429;50.842;4.386;2023-08-06T03:38:28;16.88;;;10.77;;
22525;SDS011;11429;50.842;4.386;2023-08-06T03:40:54;18.42;;;11.48;;
22525;SDS011;11429;50.842;4.386;2023-08-06T03:43:20;16.50;;;11.40;;
22525;SDS011;11429;50.842;4.386;2023-08-06T03:45:45;19.02;;;12.10;;
22525;SDS011;11429;50.842;4.386;2023-08-06T03:50:39;15.73;;;10.27;;
22525;SDS011;11429;50.842;4.386;2023-08-06T03:53:05;12.70;;;9.32;;
22525;SDS011;11429;50.842;4.386;2023-08-06T03:55:30;11.32;;;8.65;;
22525;SDS011;11429;50.842;4.386;2023-08-06T03:57:56;11.38;;;8.23;;
22525;SDS011;11429;50.842;4.386;2023-08-06T04:00:22;8.70;;;5.78;;
22525;SDS011;11429;50.842;4.386;2023-08-06T04:02:47;6.47;;;3.78;;
22525;SDS011;11429;50.842;4.386;2023-08-06T04:05:14;4.40;;;2.60;;
22525;SDS011;11429;50.842;4.386;2023-08-06T04:07:40;9.43;;;1.95;;
22525;SDS011;11429;50.842;4.386;2023-08-06T04:10:05;6.35;;;1.67;;
22525;SDS011;11429;50.842;4.386;2023-08-06T04:12:31;6.63;;;1.50;;
22525;SDS011;11429;50.842;4.386;2023-08-06T04:15:01;2.40;;;1.33;;
22525;SDS011;11429;50.842;4.386;2023-08-06T04:17:28;3.08;;;1.23;;
22525;SDS011;11429;50.842;4.386;2023-08-06T04:19:54;1.92;;;1.02;;
22525;SDS011;11429;50.842;4.386;2023-08-06T04:22:23;2.08;;;1.05;;
22525;SDS011;11429;50.842;4.386;2023-08-06T04:24:49;2.50;;;1.10;;
22525;SDS011;11429;50.842;4.386;2023-08-06T04:27:15;2.05;;;1.02;;
22525;SDS011;11429;50.842;4.386;2023-08-06T04:29:41;4.13;;;1.30;;
22525;SDS011;11429;50.842;4.386;2023-08-06T04:32:08;3.80;;;1.70;;
22525;SDS011;11429;50.842;4.386;2023-08-06T04:34:35;2.75;;;1.60;;
22525;SDS011;11429;50.842;4.386;2023-08-06T04:37:02;4.75;;;1.92;;
22525;SDS011;11429;50.842;4.386;2023-08-06T04:39:28;4.93;;;2.03;;
22525;SDS011;11429;50.842;4.386;2023-08-06T04:41:55;5.65;;;2.47;;
22525;SDS011;11429;50.842;4.386;2023-08-06T04:44:22;3.50;;;2.40;;
22525;SDS011;11429;50.842;4.386;2023-08-06T04:46:48;6.10;;;3.05;;
22525;SDS011;11429;50.842;4.386;2023-08-06T04:49:14;8.57;;;2.67;;
22525;SDS011;11429;50.842;4.386;2023-08-06T04:51:40;4.43;;;2.83;;
22525;SDS011;11429;50.842;4.386;2023-08-06T04:54:06;4.70;;;3.05;;
22525;SDS011;11429;50.842;4.386;2023-08-06T04:56:31;5.30;;;3.13;;
22525;SDS011;11429;50.842;4.386;2023-08-06T04:58:57;7.50;;;3.45;;
22525;SDS011;11429;50.842;4.386;2023-08-06T05:01:24;7.60;;;3.50;;
22525;SDS011;11429;50.842;4.386;2023-08-06T05:03:50;4.45;;;3.45;;
22525;SDS011;11429;50.842;4.386;2023-08-06T05:06:15;6.50;;;3.60;;
22525;SDS011;11429;50.842;4.386;2023-08-06T05:08:41;5.70;;;3.60;;
22525;SDS011;11429;50.842;4.386;2023-08-06T05:11:07;8.43;;;4.00;;
22525;SDS011;11429;50.842;4.386;2023-08-06T05:13:33;7.30;;;3.72;;
22525;SDS011;11429;50.842;4.386;2023-08-06T05:15:58;9.18;;;4.18;;
22525;SDS011;11429;50.842;4.386;2023-08-06T05:18:24;6.60;;;3.88;;
22525;SDS011;11429;50.842;4.386;2023-08-06T05:20:50;8.55;;;4.38;;
22525;SDS011;11429;50.842;4.386;2023-08-06T05:23:15;6.63;;;4.22;;
22525;SDS011;11429;50.842;4.386;2023-08-06T05:25:41;6.53;;;4.18;;
22525;SDS011;11429;50.842;4.386;2023-08-06T05:28:07;9.38;;;4.20;;
22525;SDS011;11429;50.842;4.386;2023-08-06T05:30:33;10.82;;;4.82;;
22525;SDS011;11429;50.842;4.386;2023-08-06T05:32:59;8.23;;;3.78;;
22525;SDS011;11429;50.842;4.386;2023-08-06T05:35:25;11.60;;;4.97;;
22525;SDS011;11429;50.842;4.386;2023-08-06T05:37:50;8.75;;;4.45;;
22525;SDS011;11429;50.842;4.386;2023-08-06T05:40:16;9.88;;;4.60;;
22525;SDS011;11429;50.842;4.386;2023-08-06T05:42:42;10.90;;;4.45;;
22525;SDS011;11429;50.842;4.386;2023-08-06T05:45:08;12.50;;;4.53;;
22525;SDS011;11429;50.842;4.386;2023-08-06T05:47:35;13.45;;;4.80;;
22525;SDS011;11429;50.842;4.386;2023-08-06T05:50:00;10.07;;;4.13;;
22525;SDS011;11429;50.842;4.386;2023-08-06T05:52:26;10.10;;;3.90;;
22525;SDS011;11429;50.842;4.386;2023-08-06T05:54:52;10.90;;;4.07;;
22525;SDS011;11429;50.842;4.386;2023-08-06T05:57:17;11.40;;;3.72;;
22525;SDS011;11429;50.842;4.386;2023-08-06T05:59:43;8.15;;;4.35;;
22525;SDS011;11429;50.842;4.386;2023-08-06T06:02:09;12.13;;;4.05;;
22525;SDS011;11429;50.842;4.386;2023-08-06T06:04:35;11.32;;;4.03;;
22525;SDS011;11429;50.842;4.386;2023-08-06T06:07:01;10.45;;;4.50;;
22525;SDS011;11429;50.842;4.386;2023-08-06T06:09:27;9.98;;;4.60;;
22525;SDS011;11429;50.842;4.386;2023-08-06T06:11:53;9.07;;;4.00;;
22525;SDS011;11429;50.842;4.386;2023-08-06T06:14:19;17.05;;;4.40;;
22525;SDS011;11429;50.842;4.386;2023-08-06T06:16:45;11.07;;;4.30;;
22525;SDS011;11429;50.842;4.386;2023-08-06T06:19:11;14.45;;;5.00;;
22525;SDS011;11429;50.842;4.386;2023-08-06T06:21:37;15.25;;;5.50;;
22525;SDS011;11429;50.842;4.386;2023-08-06T06:24:04;14.40;;;5.10;;
22525;SDS011;11429;50.842;4.386;2023-08-06T06:26:31;12.45;;;4.47;;
22525;SDS011;11429;50.842;4.386;2023-08-06T06:28:57;11.32;;;5.03;;
22525;SDS011;11429;50.842;4.386;2023-08-06T06:31:23;11.77;;;4.55;;
22525;SDS011;11429;50.842;4.386;2023-08-06T06:33:49;10.93;;;4.90;;
22525;SDS011;11429;50.842;4.386;2023-08-06T06:36:15;10.77;;;4.05;;
22525;SDS011;11429;50.842;4.386;2023-08-06T06:38:40;11.38;;;4.20;;
22525;SDS011;11429;50.842;4.386;2023-08-06T06:41:06;13.80;;;4.78;;
22525;SDS011;11429;50.842;4.386;2023-08-06T06:43:32;9.73;;;4.45;;
22525;SDS011;11429;50.842;4.386;2023-08-06T06:45:59;10.15;;;3.90;;
22525;SDS011;11429;50.842;4.386;2023-08-06T06:48:28;11.45;;;4.70;;
22525;SDS011;11429;50.842;4.386;2023-08-06T06:50:57;13.07;;;4.22;;
22525;SDS011;11429;50.842;4.386;2023-08-06T06:53:23;10.82;;;4.15;;
22525;SDS011;11429;50.842;4.386;2023-08-06T06:55:53;12.95;;;4.40;;
22525;SDS011;11429;50.842;4.386;2023-08-06T06:58:26;9.53;;;4.20;;
22525;SDS011;11429;50.842;4.386;2023-08-06T07:00:52;12.40;;;4.45;;
22525;SDS011;11429;50.842;4.386;2023-08-06T07:03:19;11.80;;;4.30;;
22525;SDS011;11429;50.842;4.386;2023-08-06T07:05:45;10.27;;;3.90;;
22525;SDS011;11429;50.842;4.386;2023-08-06T07:08:11;10.05;;;3.75;;
22525;SDS011;11429;50.842;4.386;2023-08-06T20:54:15;10.50;;;3.15;;
22525;SDS011;11429;50.842;4.386;2023-08-06T20:56:41;11.38;;;3.20;;
22525;SDS011;11429;50.842;4.386;2023-08-06T20:59:07;10.93;;;2.97;;
22525;SDS011;11429;50.842;4.386;2023-08-06T21:01:33;11.70;;;3.17;;
22525;SDS011;11429;50.842;4.386;2023-08-06T21:03:58;12.98;;;3.13;;
22525;SDS011;11429;50.842;4.386;2023-08-06T21:06:24;10.63;;;2.90;;
22525;SDS011;11429;50.842;4.386;2023-08-06T21:08:50;11.07;;;3.10;;
22525;SDS011;11429;50.842;4.386;2023-08-06T21:11:15;14.88;;;3.30;;
22525;SDS011;11429;50.842;4.386;2023-08-06T21:13:41;11.75;;;2.80;;
22525;SDS011;11429;50.842;4.386;2023-08-06T21:16:10;13.48;;;3.08;;
22525;SDS011;11429;50.842;4.386;2023-08-06T21:18:36;12.38;;;3.10;;
22525;SDS011;11429;50.842;4.386;2023-08-06T21:21:03;10.38;;;3.85;;
22525;SDS011;11429;50.842;4.386;2023-08-06T21:23:30;11.75;;;3.47;;
22525;SDS011;11429;50.842;4.386;2023-08-06T21:25:57;13.32;;;3.30;;
22525;SDS011;11429;50.842;4.386;2023-08-06T21:28:28;13.10;;;3.20;;
22525;SDS011;11429;50.842;4.386;2023-08-06T21:30:59;15.00;;;3.53;;
22525;SDS011;11429;50.842;4.386;2023-08-06T21:33:27;8.15;;;3.03;;
22525;SDS011;11429;50.842;4.386;2023-08-06T21:35:54;11.52;;;3.03;;
22525;SDS011;11429;50.842;4.386;2023-08-06T21:38:27;12.00;;;3.10;;
22525;SDS011;11429;50.842;4.386;2023-08-06T21:43:32;9.27;;;2.97;;
22525;SDS011;11429;50.842;4.386;2023-08-06T21:46:00;14.48;;;2.85;;
22525;SDS011;11429;50.842;4.386;2023-08-06T21:48:30;11.95;;;3.28;;
22525;SDS011;11429;50.842;4.386;2023-08-06T21:51:06;15.85;;;3.30;;
22525;SDS011;11429;50.842;4.386;2023-08-06T21:53:34;12.25;;;3.38;;
22525;SDS011;11429;50.842;4.386;2023-08-06T21:56:01;14.65;;;3.03;;
22525;SDS011;11429;50.842;4.386;2023-08-06T21:58:44;13.77;;;3.40;;
22525;SDS011;11429;50.842;4.386;2023-08-06T22:01:11;12.65;;;3.17;;
22525;SDS011;11429;50.842;4.386;2023-08-06T22:03:38;12.98;;;3.30;;
22525;SDS011;11429;50.842;4.386;2023-08-06T22:06:04;13.40;;;3.10;;
22525;SDS011;11429;50.842;4.386;2023-08-06T22:08:35;15.25;;;3.15;;
22525;SDS011;11429;50.842;4.386;2023-08-06T22:11:01;10.05;;;3.40;;
22525;SDS011;11429;50.842;4.386;2023-08-06T22:13:28;10.57;;;3.40;;
22525;SDS011;11429;50.842;4.386;2023-08-06T22:15:54;12.40;;;3.20;;
22525;SDS011;11429;50.842;4.386;2023-08-06T22:18:20;12.25;;;3.67;;
22525;SDS011;11429;50.842;4.386;2023-08-06T22:20:46;12.98;;;3.97;;
22525;SDS011;11429;50.842;4.386;2023-08-06T22:23:12;9.70;;;3.15;;
22525;SDS011;11429;50.842;4.386;2023-08-06T22:25:37;12.32;;;3.22;;
22525;SDS011;11429;50.842;4.386;2023-08-06T22:28:03;10.88;;;3.28;;
22525;SDS011;11429;50.842;4.386;2023-08-06T22:30:29;11.00;;;2.78;;
22525;SDS011;11429;50.842;4.386;2023-08-06T22:32:55;7.50;;;2.78;;
22525;SDS011;11429;50.842;4.386;2023-08-06T22:35:20;8.40;;;2.80;;
22525;SDS011;11429;50.842;4.386;2023-08-06T22:37:47;15.38;;;3.33;;
22525;SDS011;11429;50.842;4.386;2023-08-06T22:40:13;8.65;;;3.20;;
22525;SDS011;11429;50.842;4.386;2023-08-06T22:42:40;13.23;;;2.92;;
22525;SDS011;11429;50.842;4.386;2023-08-06T22:45:06;13.35;;;3.25;;
22525;SDS011;11429;50.842;4.386;2023-08-06T22:47:32;11.80;;;2.97;;
22525;SDS011;11429;50.842;4.386;2023-08-06T22:49:58;14.52;;;3.53;;
22525;SDS011;11429;50.842;4.386;2023-08-06T22:52:24;12.45;;;2.92;;
22525;SDS011;11429;50.842;4.386;2023-08-06T22:54:50;8.30;;;2.85;;
22525;SDS011;11429;50.842;4.386;2023-08-06T22:57:15;11.32;;;3.20;;
22525;SDS011;11429;50.842;4.386;2023-08-06T22:59:43;10.77;;;3.25;;
22525;SDS011;11429;50.842;4.386;2023-08-06T23:02:08;11.88;;;3.25;;
22525;SDS011;11429;50.842;4.386;2023-08-06T23:04:34;11.15;;;3.00;;
22525;SDS011;11429;50.842;4.386;2023-08-06T23:07:00;11.38;;;2.97;;
22525;SDS011;11429;50.842;4.386;2023-08-06T23:09:25;9.73;;;3.00;;
22525;SDS011;11429;50.842;4.386;2023-08-06T23:11:52;11.32;;;2.75;;
22525;SDS011;11429;50.842;4.386;2023-08-06T23:14:17;11.52;;;3.25;;
22525;SDS011;11429;50.842;4.386;2023-08-06T23:16:43;10.80;;;3.15;;
22525;SDS011;11429;50.842;4.386;2023-08-06T23:19:09;11.50;;;3.47;;
22525;SDS011;11429;50.842;4.386;2023-08-06T23:24:05;11.88;;;2.97;;
22525;SDS011;11429;50.842;4.386;2023-08-06T23:26:31;9.20;;;2.92;;
22525;SDS011;11429;50.842;4.386;2023-08-06T23:28:57;14.57;;;3.15;;
22525;SDS011;11429;50.842;4.386;2023-08-06T23:31:22;10.38;;;3.03;;
22525;SDS011;11429;50.842;4.386;2023-08-06T23:33:48;11.55;;;2.90;;
22525;SDS011;11429;50.842;4.386;2023-08-06T23:36:14;10.75;;;3.17;;
22525;SDS011;11429;50.842;4.386;2023-08-06T23:38:40;12.93;;;3.05;;
22525;SDS011;11429;50.842;4.386;2023-08-06T23:41:06;9.93;;;3.08;;
22525;SDS011;11429;50.842;4.386;2023-08-06T23:43:31;9.95;;;3.55;;
22525;SDS011;11429;50.842;4.386;2023-08-06T23:45:57;12.88;;;3.25;;
22525;SDS011;11429;50.842;4.386;2023-08-06T23:48:24;11.10;;;3.10;;
22525;SDS011;11429;50.842;4.386;2023-08-06T23:50:50;10.85;;;3.40;;
22525;SDS011;11429;50.842;4.386;2023-08-06T23:53:17;14.25;;;3.33;;
22525;SDS011;11429;50.842;4.386;2023-08-06T23:55:43;7.43;;;2.60;;
22525;SDS011;11429;50.842;4.386;2023-08-06T23:58:09;13.18;;;3.60;;
